sensor_id;sensor_type;location;lat;lon;timestamp;P1;durP1;ratioP1;P2;durP2;ratioP2
22778;SDS011;11556;51.194;3.800;2022-08-19T00:01:51;73.97;;;50.38;;
22778;SDS011;11556;51.194;3.800;2022-08-19T00:04:19;73.90;;;47.65;;
22778;SDS011;11556;51.194;3.800;2022-08-19T00:06:46;75.68;;;48.78;;
22778;SDS011;11556;51.194;3.800;2022-08-19T00:09:13;71.53;;;47.17;;
22778;SDS011;11556;51.194;3.800;2022-08-19T00:11:40;80.25;;;48.40;;
22778;SDS011;11556;51.194;3.800;2022-08-19T00:14:09;72.57;;;47.38;;
22778;SDS011;11556;51.194;3.800;2022-08-19T00:16:39;75.53;;;49.17;;
22778;SDS011;11556;51.194;3.800;2022-08-19T00:19:06;72.72;;;47.72;;
22778;SDS011;11556;51.194;3.800;2022-08-19T00:21:32;72.15;;;46.60;;
22778;SDS011;11556;51.194;3.800;2022-08-19T00:24:03;68.80;;;44.90;;
22778;SDS011;11556;51.194;3.800;2022-08-19T00:26:28;68.95;;;43.85;;
22778;SDS011;11556;51.194;3.800;2022-08-19T00:28:54;69.47;;;44.33;;
22778;SDS011;11556;51.194;3.800;2022-08-19T00:31:20;64.32;;;44.55;;
22778;SDS011;11556;51.194;3.800;2022-08-19T00:33:47;61.80;;;42.15;;
22778;SDS011;11556;51.194;3.800;2022-08-19T00:36:14;53.85;;;38.25;;
22778;SDS011;11556;51.194;3.800;2022-08-19T00:38:40;61.92;;;40.03;;
22778;SDS011;11556;51.194;3.800;2022-08-19T00:41:09;55.33;;;36.17;;
22778;SDS011;11556;51.194;3.800;2022-08-19T00:43:37;52.78;;;34.15;;
22778;SDS011;11556;51.194;3.800;2022-08-19T00:46:05;58.25;;;35.67;;
22778;SDS011;11556;51.194;3.800;2022-08-19T00:48:31;52.17;;;34.72;;
22778;SDS011;11556;51.194;3.800;2022-08-19T00:50:58;48.38;;;33.35;;
22778;SDS011;11556;51.194;3.800;2022-08-19T00:53:26;51.50;;;34.10;;
22778;SDS011;11556;51.194;3.800;2022-08-19T00:55:56;49.45;;;33.92;;
22778;SDS011;11556;51.194;3.800;2022-08-19T00:58:26;54.28;;;32.03;;
22778;SDS011;11556;51.194;3.800;2022-08-19T01:00:54;50.20;;;32.10;;
22778;SDS011;11556;51.194;3.800;2022-08-19T01:03:20;48.03;;;31.83;;
22778;SDS011;11556;51.194;3.800;2022-08-19T01:05:47;49.10;;;31.75;;
22778;SDS011;11556;51.194;3.800;2022-08-19T01:08:14;48.70;;;31.52;;
22778;SDS011;11556;51.194;3.800;2022-08-19T01:10:43;45.75;;;31.80;;
22778;SDS011;11556;51.194;3.800;2022-08-19T01:13:13;46.00;;;30.52;;
22778;SDS011;11556;51.194;3.800;2022-08-19T01:15:44;45.88;;;30.02;;
22778;SDS011;11556;51.194;3.800;2022-08-19T01:18:14;49.53;;;31.70;;
22778;SDS011;11556;51.194;3.800;2022-08-19T01:20:41;45.95;;;29.35;;
22778;SDS011;11556;51.194;3.800;2022-08-19T01:23:07;41.85;;;29.60;;
22778;SDS011;11556;51.194;3.800;2022-08-19T01:25:35;45.00;;;29.20;;
22778;SDS011;11556;51.194;3.800;2022-08-19T01:28:25;51.28;;;30.60;;
22778;SDS011;11556;51.194;3.800;2022-08-19T01:30:52;45.20;;;27.75;;
22778;SDS011;11556;51.194;3.800;2022-08-19T01:33:19;45.83;;;29.17;;
22778;SDS011;11556;51.194;3.800;2022-08-19T01:35:45;47.80;;;29.17;;
22778;SDS011;11556;51.194;3.800;2022-08-19T01:38:23;46.72;;;28.42;;
22778;SDS011;11556;51.194;3.800;2022-08-19T01:40:51;48.78;;;29.83;;
22778;SDS011;11556;51.194;3.800;2022-08-19T01:43:17;50.67;;;31.52;;
22778;SDS011;11556;51.194;3.800;2022-08-19T01:45:44;49.22;;;32.00;;
22778;SDS011;11556;51.194;3.800;2022-08-19T01:48:10;47.80;;;30.90;;
22778;SDS011;11556;51.194;3.800;2022-08-19T01:50:37;50.90;;;32.55;;
22778;SDS011;11556;51.194;3.800;2022-08-19T01:53:05;51.45;;;31.52;;
22778;SDS011;11556;51.194;3.800;2022-08-19T01:55:38;50.87;;;31.40;;
22778;SDS011;11556;51.194;3.800;2022-08-19T01:58:06;50.53;;;31.33;;
22778;SDS011;11556;51.194;3.800;2022-08-19T02:00:35;53.47;;;32.95;;
22778;SDS011;11556;51.194;3.800;2022-08-19T02:03:02;54.00;;;32.35;;
22778;SDS011;11556;51.194;3.800;2022-08-19T02:05:27;58.15;;;32.78;;
22778;SDS011;11556;51.194;3.800;2022-08-19T02:07:54;54.30;;;33.38;;
22778;SDS011;11556;51.194;3.800;2022-08-19T02:10:21;51.75;;;31.15;;
22778;SDS011;11556;51.194;3.800;2022-08-19T02:12:47;52.15;;;33.10;;
22778;SDS011;11556;51.194;3.800;2022-08-19T02:15:14;63.10;;;34.17;;
22778;SDS011;11556;51.194;3.800;2022-08-19T02:17:40;58.33;;;33.53;;
22778;SDS011;11556;51.194;3.800;2022-08-19T02:20:06;58.03;;;34.28;;
22778;SDS011;11556;51.194;3.800;2022-08-19T02:22:33;56.38;;;33.20;;
22778;SDS011;11556;51.194;3.800;2022-08-19T02:25:00;52.10;;;31.38;;
22778;SDS011;11556;51.194;3.800;2022-08-19T02:27:26;53.10;;;31.23;;
22778;SDS011;11556;51.194;3.800;2022-08-19T02:29:52;56.55;;;32.60;;
22778;SDS011;11556;51.194;3.800;2022-08-19T02:32:18;54.97;;;32.88;;
22778;SDS011;11556;51.194;3.800;2022-08-19T02:34:45;57.80;;;32.70;;
22778;SDS011;11556;51.194;3.800;2022-08-19T02:37:11;57.15;;;32.03;;
22778;SDS011;11556;51.194;3.800;2022-08-19T02:39:55;53.22;;;31.80;;
22778;SDS011;11556;51.194;3.800;2022-08-19T02:42:21;55.28;;;29.90;;
22778;SDS011;11556;51.194;3.800;2022-08-19T02:44:47;52.75;;;30.45;;
22778;SDS011;11556;51.194;3.800;2022-08-19T02:47:13;53.45;;;32.13;;
22778;SDS011;11556;51.194;3.800;2022-08-19T02:49:40;54.58;;;31.10;;
22778;SDS011;11556;51.194;3.800;2022-08-19T02:52:06;53.58;;;31.77;;
22778;SDS011;11556;51.194;3.800;2022-08-19T02:54:32;52.83;;;31.10;;
22778;SDS011;11556;51.194;3.800;2022-08-19T02:56:58;53.05;;;31.40;;
22778;SDS011;11556;51.194;3.800;2022-08-19T02:59:24;51.50;;;31.02;;
22778;SDS011;11556;51.194;3.800;2022-08-19T03:01:51;51.40;;;30.38;;
22778;SDS011;11556;51.194;3.800;2022-08-19T03:04:17;49.67;;;29.63;;
22778;SDS011;11556;51.194;3.800;2022-08-19T03:06:45;54.50;;;30.05;;
22778;SDS011;11556;51.194;3.800;2022-08-19T03:09:12;54.42;;;28.95;;
22778;SDS011;11556;51.194;3.800;2022-08-19T03:11:38;49.25;;;27.17;;
22778;SDS011;11556;51.194;3.800;2022-08-19T03:14:05;48.72;;;28.17;;
22778;SDS011;11556;51.194;3.800;2022-08-19T03:16:33;48.00;;;25.88;;
22778;SDS011;11556;51.194;3.800;2022-08-19T03:19:01;42.42;;;24.77;;
22778;SDS011;11556;51.194;3.800;2022-08-19T03:21:28;47.65;;;24.40;;
22778;SDS011;11556;51.194;3.800;2022-08-19T03:23:57;41.70;;;24.98;;
22778;SDS011;11556;51.194;3.800;2022-08-19T03:26:25;45.10;;;23.98;;
22778;SDS011;11556;51.194;3.800;2022-08-19T03:28:51;39.65;;;23.38;;
22778;SDS011;11556;51.194;3.800;2022-08-19T03:31:17;39.20;;;22.50;;
22778;SDS011;11556;51.194;3.800;2022-08-19T03:33:45;37.47;;;23.23;;
22778;SDS011;11556;51.194;3.800;2022-08-19T03:36:12;39.38;;;22.73;;
22778;SDS011;11556;51.194;3.800;2022-08-19T03:38:42;38.15;;;22.13;;
22778;SDS011;11556;51.194;3.800;2022-08-19T03:41:10;35.40;;;20.52;;
22778;SDS011;11556;51.194;3.800;2022-08-19T03:43:38;38.55;;;20.35;;
22778;SDS011;11556;51.194;3.800;2022-08-19T03:46:06;39.05;;;21.67;;
22778;SDS011;11556;51.194;3.800;2022-08-19T03:48:34;40.63;;;21.20;;
22778;SDS011;11556;51.194;3.800;2022-08-19T03:51:01;42.65;;;20.95;;
22778;SDS011;11556;51.194;3.800;2022-08-19T03:53:27;36.33;;;20.90;;
22778;SDS011;11556;51.194;3.800;2022-08-19T03:55:54;39.85;;;21.17;;
22778;SDS011;11556;51.194;3.800;2022-08-19T03:58:21;43.92;;;21.23;;
22778;SDS011;11556;51.194;3.800;2022-08-19T04:00:47;38.45;;;21.05;;
22778;SDS011;11556;51.194;3.800;2022-08-19T04:03:13;35.92;;;19.73;;
22778;SDS011;11556;51.194;3.800;2022-08-19T04:05:40;35.63;;;19.42;;
22778;SDS011;11556;51.194;3.800;2022-08-19T04:08:05;34.45;;;19.35;;
22778;SDS011;11556;51.194;3.800;2022-08-19T04:10:35;37.95;;;20.08;;
22778;SDS011;11556;51.194;3.800;2022-08-19T04:13:01;39.45;;;21.00;;
22778;SDS011;11556;51.194;3.800;2022-08-19T04:15:28;33.47;;;19.88;;
22778;SDS011;11556;51.194;3.800;2022-08-19T04:17:56;38.47;;;20.30;;
22778;SDS011;11556;51.194;3.800;2022-08-19T04:20:21;37.20;;;20.08;;
22778;SDS011;11556;51.194;3.800;2022-08-19T04:22:47;36.83;;;21.15;;
22778;SDS011;11556;51.194;3.800;2022-08-19T04:25:12;34.90;;;20.25;;
22778;SDS011;11556;51.194;3.800;2022-08-19T04:27:38;41.28;;;20.55;;
22778;SDS011;11556;51.194;3.800;2022-08-19T04:30:04;38.70;;;21.55;;
22778;SDS011;11556;51.194;3.800;2022-08-19T04:32:30;37.65;;;20.55;;
22778;SDS011;11556;51.194;3.800;2022-08-19T04:34:56;39.42;;;21.23;;
22778;SDS011;11556;51.194;3.800;2022-08-19T04:37:23;44.00;;;20.73;;
22778;SDS011;11556;51.194;3.800;2022-08-19T04:39:51;37.65;;;20.83;;
22778;SDS011;11556;51.194;3.800;2022-08-19T04:42:35;33.50;;;20.90;;
22778;SDS011;11556;51.194;3.800;2022-08-19T04:45:08;34.78;;;21.00;;
22778;SDS011;11556;51.194;3.800;2022-08-19T04:47:38;36.13;;;19.92;;
22778;SDS011;11556;51.194;3.800;2022-08-19T04:50:06;38.80;;;20.55;;
22778;SDS011;11556;51.194;3.800;2022-08-19T04:52:34;36.15;;;20.25;;
22778;SDS011;11556;51.194;3.800;2022-08-19T04:54:59;40.08;;;20.35;;
22778;SDS011;11556;51.194;3.800;2022-08-19T04:57:25;39.63;;;20.00;;
22778;SDS011;11556;51.194;3.800;2022-08-19T04:59:54;40.75;;;20.90;;
22778;SDS011;11556;51.194;3.800;2022-08-19T05:02:21;37.20;;;19.75;;
22778;SDS011;11556;51.194;3.800;2022-08-19T05:04:51;35.75;;;19.75;;
22778;SDS011;11556;51.194;3.800;2022-08-19T05:07:21;35.13;;;19.85;;
22778;SDS011;11556;51.194;3.800;2022-08-19T05:09:47;30.80;;;18.63;;
22778;SDS011;11556;51.194;3.800;2022-08-19T05:12:13;33.88;;;19.45;;
22778;SDS011;11556;51.194;3.800;2022-08-19T05:14:38;39.33;;;19.75;;
22778;SDS011;11556;51.194;3.800;2022-08-19T05:17:04;38.45;;;19.05;;
22778;SDS011;11556;51.194;3.800;2022-08-19T05:19:29;36.63;;;18.95;;
22778;SDS011;11556;51.194;3.800;2022-08-19T05:22:14;33.45;;;18.30;;
22778;SDS011;11556;51.194;3.800;2022-08-19T05:24:59;28.45;;;17.65;;
22778;SDS011;11556;51.194;3.800;2022-08-19T05:27:32;30.75;;;17.08;;
22778;SDS011;11556;51.194;3.800;2022-08-19T05:29:58;31.27;;;17.70;;
22778;SDS011;11556;51.194;3.800;2022-08-19T05:32:25;35.03;;;17.48;;
22778;SDS011;11556;51.194;3.800;2022-08-19T05:34:51;29.67;;;16.95;;
22778;SDS011;11556;51.194;3.800;2022-08-19T05:37:16;33.33;;;17.48;;
22778;SDS011;11556;51.194;3.800;2022-08-19T05:39:42;29.75;;;16.73;;
22778;SDS011;11556;51.194;3.800;2022-08-19T05:42:09;30.15;;;16.95;;
22778;SDS011;11556;51.194;3.800;2022-08-19T05:44:37;33.63;;;18.08;;
22778;SDS011;11556;51.194;3.800;2022-08-19T05:47:05;34.67;;;17.88;;
22778;SDS011;11556;51.194;3.800;2022-08-19T05:49:33;34.30;;;17.98;;
22778;SDS011;11556;51.194;3.800;2022-08-19T05:52:03;34.53;;;17.50;;
22778;SDS011;11556;51.194;3.800;2022-08-19T05:54:30;30.20;;;18.35;;
22778;SDS011;11556;51.194;3.800;2022-08-19T05:56:56;29.98;;;18.50;;
22778;SDS011;11556;51.194;3.800;2022-08-19T05:59:22;29.85;;;17.98;;
22778;SDS011;11556;51.194;3.800;2022-08-19T06:01:48;34.00;;;18.35;;
22778;SDS011;11556;51.194;3.800;2022-08-19T06:04:16;31.38;;;18.55;;
22778;SDS011;11556;51.194;3.800;2022-08-19T06:06:46;35.10;;;18.98;;
22778;SDS011;11556;51.194;3.800;2022-08-19T06:09:12;31.35;;;18.67;;
22778;SDS011;11556;51.194;3.800;2022-08-19T06:11:43;34.55;;;19.05;;
22778;SDS011;11556;51.194;3.800;2022-08-19T06:14:16;30.38;;;17.38;;
22778;SDS011;11556;51.194;3.800;2022-08-19T06:16:43;29.05;;;16.58;;
22778;SDS011;11556;51.194;3.800;2022-08-19T06:19:11;33.28;;;18.38;;
22778;SDS011;11556;51.194;3.800;2022-08-19T06:21:39;31.30;;;17.80;;
22778;SDS011;11556;51.194;3.800;2022-08-19T06:24:08;31.52;;;17.65;;
22778;SDS011;11556;51.194;3.800;2022-08-19T06:26:36;32.70;;;17.02;;
22778;SDS011;11556;51.194;3.800;2022-08-19T06:29:03;26.77;;;17.67;;
22778;SDS011;11556;51.194;3.800;2022-08-19T06:31:31;30.83;;;16.73;;
22778;SDS011;11556;51.194;3.800;2022-08-19T06:33:58;29.67;;;16.10;;
22778;SDS011;11556;51.194;3.800;2022-08-19T06:36:29;29.75;;;16.95;;
22778;SDS011;11556;51.194;3.800;2022-08-19T06:38:59;26.63;;;17.10;;
22778;SDS011;11556;51.194;3.800;2022-08-19T06:41:26;23.80;;;15.60;;
22778;SDS011;11556;51.194;3.800;2022-08-19T06:43:53;27.27;;;14.23;;
22778;SDS011;11556;51.194;3.800;2022-08-19T06:46:19;27.42;;;16.05;;
22778;SDS011;11556;51.194;3.800;2022-08-19T06:48:45;26.10;;;17.40;;
22778;SDS011;11556;51.194;3.800;2022-08-19T06:51:13;28.02;;;16.48;;
22778;SDS011;11556;51.194;3.800;2022-08-19T06:53:43;26.60;;;15.75;;
22778;SDS011;11556;51.194;3.800;2022-08-19T06:56:16;31.40;;;17.05;;
22778;SDS011;11556;51.194;3.800;2022-08-19T06:58:44;27.00;;;16.50;;
22778;SDS011;11556;51.194;3.800;2022-08-19T07:01:11;27.55;;;15.52;;
22778;SDS011;11556;51.194;3.800;2022-08-19T07:03:37;27.00;;;16.35;;
22778;SDS011;11556;51.194;3.800;2022-08-19T07:06:08;21.13;;;15.10;;
22778;SDS011;11556;51.194;3.800;2022-08-19T07:08:37;21.88;;;14.63;;
22778;SDS011;11556;51.194;3.800;2022-08-19T07:11:06;26.58;;;16.95;;
22778;SDS011;11556;51.194;3.800;2022-08-19T07:13:33;21.02;;;14.85;;
22778;SDS011;11556;51.194;3.800;2022-08-19T07:16:12;24.02;;;16.58;;
22778;SDS011;11556;51.194;3.800;2022-08-19T07:18:40;24.13;;;15.10;;
22778;SDS011;11556;51.194;3.800;2022-08-19T07:21:07;27.48;;;15.32;;
22778;SDS011;11556;51.194;3.800;2022-08-19T07:24:00;26.55;;;15.82;;
22778;SDS011;11556;51.194;3.800;2022-08-19T07:26:26;20.70;;;14.90;;
22778;SDS011;11556;51.194;3.800;2022-08-19T07:28:54;22.52;;;15.50;;
22778;SDS011;11556;51.194;3.800;2022-08-19T07:31:21;22.30;;;15.35;;
22778;SDS011;11556;51.194;3.800;2022-08-19T07:33:49;25.65;;;15.45;;
22778;SDS011;11556;51.194;3.800;2022-08-19T07:36:17;25.42;;;16.77;;
22778;SDS011;11556;51.194;3.800;2022-08-19T07:38:47;22.00;;;13.90;;
22778;SDS011;11556;51.194;3.800;2022-08-19T07:41:16;21.48;;;14.65;;
22778;SDS011;11556;51.194;3.800;2022-08-19T07:43:44;26.02;;;15.30;;
22778;SDS011;11556;51.194;3.800;2022-08-19T07:46:11;22.77;;;14.35;;
22778;SDS011;11556;51.194;3.800;2022-08-19T07:48:38;26.77;;;15.82;;
22778;SDS011;11556;51.194;3.800;2022-08-19T07:51:06;25.30;;;15.35;;
22778;SDS011;11556;51.194;3.800;2022-08-19T07:53:33;25.88;;;16.70;;
22778;SDS011;11556;51.194;3.800;2022-08-19T07:56:00;33.47;;;18.42;;
22778;SDS011;11556;51.194;3.800;2022-08-19T07:58:30;31.15;;;18.25;;
22778;SDS011;11556;51.194;3.800;2022-08-19T08:00:58;28.50;;;16.73;;
22778;SDS011;11556;51.194;3.800;2022-08-19T08:03:23;28.85;;;16.58;;
22778;SDS011;11556;51.194;3.800;2022-08-19T08:06:10;26.17;;;15.48;;
22778;SDS011;11556;51.194;3.800;2022-08-19T08:09:16;27.75;;;16.60;;
22778;SDS011;11556;51.194;3.800;2022-08-19T08:11:52;26.60;;;17.60;;
22778;SDS011;11556;51.194;3.800;2022-08-19T08:14:24;27.92;;;16.42;;
22778;SDS011;11556;51.194;3.800;2022-08-19T08:16:53;36.10;;;18.55;;
22778;SDS011;11556;51.194;3.800;2022-08-19T08:19:21;31.25;;;19.50;;
22778;SDS011;11556;51.194;3.800;2022-08-19T08:21:48;29.98;;;17.88;;
22778;SDS011;11556;51.194;3.800;2022-08-19T08:24:15;28.25;;;17.08;;
22778;SDS011;11556;51.194;3.800;2022-08-19T08:26:41;26.88;;;17.20;;
22778;SDS011;11556;51.194;3.800;2022-08-19T08:29:08;31.33;;;16.80;;
22778;SDS011;11556;51.194;3.800;2022-08-19T08:31:38;27.77;;;16.40;;
22778;SDS011;11556;51.194;3.800;2022-08-19T08:34:05;24.38;;;16.35;;
22778;SDS011;11556;51.194;3.800;2022-08-19T08:36:32;25.08;;;16.35;;
22778;SDS011;11556;51.194;3.800;2022-08-19T08:38:58;22.23;;;15.43;;
22778;SDS011;11556;51.194;3.800;2022-08-19T08:43:59;29.08;;;15.93;;
22778;SDS011;11556;51.194;3.800;2022-08-19T08:46:39;24.80;;;15.07;;
22778;SDS011;11556;51.194;3.800;2022-08-19T08:54:33;29.40;;;14.38;;
22778;SDS011;11556;51.194;3.800;2022-08-19T08:57:07;24.55;;;14.43;;
22778;SDS011;11556;51.194;3.800;2022-08-19T08:59:39;26.35;;;15.38;;
22778;SDS011;11556;51.194;3.800;2022-08-19T09:02:06;23.10;;;13.82;;
22778;SDS011;11556;51.194;3.800;2022-08-19T09:04:34;19.65;;;12.15;;
22778;SDS011;11556;51.194;3.800;2022-08-19T09:09:41;20.70;;;11.82;;
22778;SDS011;11556;51.194;3.800;2022-08-19T09:15:03;16.05;;;11.57;;
22778;SDS011;11556;51.194;3.800;2022-08-19T09:17:33;22.00;;;12.55;;
22778;SDS011;11556;51.194;3.800;2022-08-19T09:22:36;21.38;;;12.52;;
22778;SDS011;11556;51.194;3.800;2022-08-19T09:25:03;21.85;;;12.82;;
22778;SDS011;11556;51.194;3.800;2022-08-19T09:27:30;21.85;;;13.60;;
22778;SDS011;11556;51.194;3.800;2022-08-19T09:29:56;19.38;;;13.65;;
22778;SDS011;11556;51.194;3.800;2022-08-19T09:32:23;21.35;;;12.65;;
22778;SDS011;11556;51.194;3.800;2022-08-19T09:34:52;22.75;;;14.40;;
22778;SDS011;11556;51.194;3.800;2022-08-19T09:37:23;19.58;;;14.10;;
22778;SDS011;11556;51.194;3.800;2022-08-19T09:39:49;22.60;;;14.63;;
22778;SDS011;11556;51.194;3.800;2022-08-19T09:42:15;19.77;;;14.93;;
22778;SDS011;11556;51.194;3.800;2022-08-19T09:44:42;20.15;;;14.05;;
22778;SDS011;11556;51.194;3.800;2022-08-19T09:47:11;15.10;;;11.40;;
22778;SDS011;11556;51.194;3.800;2022-08-19T09:49:38;17.27;;;11.23;;
22778;SDS011;11556;51.194;3.800;2022-08-19T09:52:05;14.00;;;11.23;;
22778;SDS011;11556;51.194;3.800;2022-08-19T09:54:34;14.85;;;11.07;;
22778;SDS011;11556;51.194;3.800;2022-08-19T09:57:00;14.00;;;10.75;;
22778;SDS011;11556;51.194;3.800;2022-08-19T09:59:26;13.90;;;9.90;;
22778;SDS011;11556;51.194;3.800;2022-08-19T10:01:53;13.48;;;10.45;;
22778;SDS011;11556;51.194;3.800;2022-08-19T10:04:19;12.98;;;10.48;;
22778;SDS011;11556;51.194;3.800;2022-08-19T10:06:46;15.07;;;12.07;;
22778;SDS011;11556;51.194;3.800;2022-08-19T10:09:13;14.27;;;11.02;;
22778;SDS011;11556;51.194;3.800;2022-08-19T10:11:40;15.50;;;12.90;;
22778;SDS011;11556;51.194;3.800;2022-08-19T10:14:07;17.35;;;11.85;;
22778;SDS011;11556;51.194;3.800;2022-08-19T10:16:33;15.95;;;11.73;;
22778;SDS011;11556;51.194;3.800;2022-08-19T10:19:00;14.63;;;10.85;;
22778;SDS011;11556;51.194;3.800;2022-08-19T10:21:28;13.77;;;11.07;;
22778;SDS011;11556;51.194;3.800;2022-08-19T10:23:57;13.68;;;10.57;;
22778;SDS011;11556;51.194;3.800;2022-08-19T10:26:28;12.52;;;10.52;;
22778;SDS011;11556;51.194;3.800;2022-08-19T10:28:58;14.70;;;10.77;;
22778;SDS011;11556;51.194;3.800;2022-08-19T10:31:26;12.27;;;10.48;;
22778;SDS011;11556;51.194;3.800;2022-08-19T10:33:53;13.73;;;9.95;;
22778;SDS011;11556;51.194;3.800;2022-08-19T10:36:24;12.40;;;10.13;;
22778;SDS011;11556;51.194;3.800;2022-08-19T10:38:52;10.75;;;9.05;;
22778;SDS011;11556;51.194;3.800;2022-08-19T10:41:24;11.33;;;8.50;;
22778;SDS011;11556;51.194;3.800;2022-08-19T10:43:52;9.52;;;8.13;;
22778;SDS011;11556;51.194;3.800;2022-08-19T10:46:20;9.15;;;6.72;;
22778;SDS011;11556;51.194;3.800;2022-08-19T10:48:47;9.27;;;6.78;;
22778;SDS011;11556;51.194;3.800;2022-08-19T10:51:14;6.93;;;5.63;;
22778;SDS011;11556;51.194;3.800;2022-08-19T10:53:59;6.03;;;5.22;;
22778;SDS011;11556;51.194;3.800;2022-08-19T10:56:25;11.80;;;7.88;;
22778;SDS011;11556;51.194;3.800;2022-08-19T10:59:10;10.40;;;7.28;;
22778;SDS011;11556;51.194;3.800;2022-08-19T11:01:37;9.15;;;6.25;;
22778;SDS011;11556;51.194;3.800;2022-08-19T11:04:03;11.07;;;6.35;;
22778;SDS011;11556;51.194;3.800;2022-08-19T11:06:33;7.85;;;7.05;;
22778;SDS011;11556;51.194;3.800;2022-08-19T11:08:58;10.80;;;6.70;;
22778;SDS011;11556;51.194;3.800;2022-08-19T11:11:25;10.43;;;6.15;;
22778;SDS011;11556;51.194;3.800;2022-08-19T11:13:51;8.55;;;4.68;;
22778;SDS011;11556;51.194;3.800;2022-08-19T11:16:21;6.43;;;3.50;;
22778;SDS011;11556;51.194;3.800;2022-08-19T11:18:50;6.00;;;2.78;;
22778;SDS011;11556;51.194;3.800;2022-08-19T11:21:19;5.88;;;2.20;;
22778;SDS011;11556;51.194;3.800;2022-08-19T11:23:46;3.08;;;2.10;;
22778;SDS011;11556;51.194;3.800;2022-08-19T11:26:14;3.28;;;2.28;;
22778;SDS011;11556;51.194;3.800;2022-08-19T11:28:41;3.03;;;1.98;;
22778;SDS011;11556;51.194;3.800;2022-08-19T11:31:13;4.47;;;2.03;;
22778;SDS011;11556;51.194;3.800;2022-08-19T11:33:42;3.83;;;1.80;;
22778;SDS011;11556;51.194;3.800;2022-08-19T11:36:08;2.90;;;2.03;;
22778;SDS011;11556;51.194;3.800;2022-08-19T11:38:35;3.20;;;1.70;;
22778;SDS011;11556;51.194;3.800;2022-08-19T11:41:01;7.13;;;2.05;;
22778;SDS011;11556;51.194;3.800;2022-08-19T11:43:32;3.60;;;1.33;;
22778;SDS011;11556;51.194;3.800;2022-08-19T11:46:06;2.92;;;1.55;;
22778;SDS011;11556;51.194;3.800;2022-08-19T11:48:35;3.20;;;1.33;;
22778;SDS011;11556;51.194;3.800;2022-08-19T11:51:03;4.95;;;1.35;;
22778;SDS011;11556;51.194;3.800;2022-08-19T11:53:31;3.22;;;1.40;;
22778;SDS011;11556;51.194;3.800;2022-08-19T11:55:57;2.90;;;1.60;;
22778;SDS011;11556;51.194;3.800;2022-08-19T11:58:23;3.65;;;1.60;;
22778;SDS011;11556;51.194;3.800;2022-08-19T12:00:50;2.38;;;1.30;;
22778;SDS011;11556;51.194;3.800;2022-08-19T12:03:16;2.63;;;1.38;;
22778;SDS011;11556;51.194;3.800;2022-08-19T12:05:43;3.50;;;1.50;;
22778;SDS011;11556;51.194;3.800;2022-08-19T12:08:09;2.33;;;1.50;;
22778;SDS011;11556;51.194;3.800;2022-08-19T12:10:36;4.85;;;1.50;;
22778;SDS011;11556;51.194;3.800;2022-08-19T12:13:02;1.80;;;1.27;;
22778;SDS011;11556;51.194;3.800;2022-08-19T12:15:27;1.88;;;1.40;;
22778;SDS011;11556;51.194;3.800;2022-08-19T12:17:54;2.55;;;1.40;;
22778;SDS011;11556;51.194;3.800;2022-08-19T12:20:22;3.67;;;1.60;;
22778;SDS011;11556;51.194;3.800;2022-08-19T12:22:49;3.63;;;1.70;;
22778;SDS011;11556;51.194;3.800;2022-08-19T12:25:15;2.20;;;1.60;;
22778;SDS011;11556;51.194;3.800;2022-08-19T12:27:41;3.92;;;1.70;;
22778;SDS011;11556;51.194;3.800;2022-08-19T12:30:08;4.35;;;1.67;;
22778;SDS011;11556;51.194;3.800;2022-08-19T12:32:35;4.68;;;2.10;;
22778;SDS011;11556;51.194;3.800;2022-08-19T12:35:00;3.55;;;1.98;;
22778;SDS011;11556;51.194;3.800;2022-08-19T12:37:26;4.15;;;2.65;;
22778;SDS011;11556;51.194;3.800;2022-08-19T12:39:52;3.70;;;2.25;;
22778;SDS011;11556;51.194;3.800;2022-08-19T12:42:18;3.40;;;2.53;;
22778;SDS011;11556;51.194;3.800;2022-08-19T12:44:44;3.33;;;2.40;;
22778;SDS011;11556;51.194;3.800;2022-08-19T12:47:10;4.22;;;2.30;;
22778;SDS011;11556;51.194;3.800;2022-08-19T12:49:38;10.73;;;2.42;;
22778;SDS011;11556;51.194;3.800;2022-08-19T12:52:06;5.13;;;2.25;;
22778;SDS011;11556;51.194;3.800;2022-08-19T12:54:34;2.00;;;1.80;;
22778;SDS011;11556;51.194;3.800;2022-08-19T12:57:04;3.35;;;1.90;;
22778;SDS011;11556;51.194;3.800;2022-08-19T12:59:31;1.75;;;1.65;;
22778;SDS011;11556;51.194;3.800;2022-08-19T13:01:56;2.53;;;2.03;;
22778;SDS011;11556;51.194;3.800;2022-08-19T13:04:22;5.97;;;2.25;;
22778;SDS011;11556;51.194;3.800;2022-08-19T13:06:48;4.47;;;2.08;;
22778;SDS011;11556;51.194;3.800;2022-08-19T13:09:13;3.60;;;1.80;;
22778;SDS011;11556;51.194;3.800;2022-08-19T13:11:39;2.47;;;1.50;;
22778;SDS011;11556;51.194;3.800;2022-08-19T13:14:04;7.07;;;1.35;;
22778;SDS011;11556;51.194;3.800;2022-08-19T13:16:30;5.32;;;1.33;;
22778;SDS011;11556;51.194;3.800;2022-08-19T13:18:56;2.20;;;0.95;;
22778;SDS011;11556;51.194;3.800;2022-08-19T13:21:24;5.88;;;1.00;;
22778;SDS011;11556;51.194;3.800;2022-08-19T13:23:52;17.48;;;1.17;;
22778;SDS011;11556;51.194;3.800;2022-08-19T13:26:19;8.48;;;1.20;;
22778;SDS011;11556;51.194;3.800;2022-08-19T13:28:45;9.90;;;1.13;;
22778;SDS011;11556;51.194;3.800;2022-08-19T13:31:31;14.63;;;1.83;;
22778;SDS011;11556;51.194;3.800;2022-08-19T13:34:17;7.45;;;2.10;;
22778;SDS011;11556;51.194;3.800;2022-08-19T13:36:46;8.23;;;2.30;;
22778;SDS011;11556;51.194;3.800;2022-08-19T13:39:11;7.85;;;3.40;;
22778;SDS011;11556;51.194;3.800;2022-08-19T13:41:37;13.73;;;4.00;;
22778;SDS011;11556;51.194;3.800;2022-08-19T13:44:08;6.78;;;3.42;;
22778;SDS011;11556;51.194;3.800;2022-08-19T13:46:34;7.57;;;4.10;;
22778;SDS011;11556;51.194;3.800;2022-08-19T13:48:59;6.03;;;3.85;;
22778;SDS011;11556;51.194;3.800;2022-08-19T13:51:25;5.57;;;3.60;;
22778;SDS011;11556;51.194;3.800;2022-08-19T13:53:50;6.45;;;3.40;;
22778;SDS011;11556;51.194;3.800;2022-08-19T13:56:17;6.68;;;3.17;;
22778;SDS011;11556;51.194;3.800;2022-08-19T13:58:44;5.18;;;2.83;;
22778;SDS011;11556;51.194;3.800;2022-08-19T14:01:11;8.65;;;2.83;;
22778;SDS011;11556;51.194;3.800;2022-08-19T14:03:36;2.85;;;2.20;;
22778;SDS011;11556;51.194;3.800;2022-08-19T14:06:02;3.08;;;2.50;;
22778;SDS011;11556;51.194;3.800;2022-08-19T14:08:28;4.30;;;2.60;;
22778;SDS011;11556;51.194;3.800;2022-08-19T14:10:57;2.97;;;2.67;;
22778;SDS011;11556;51.194;3.800;2022-08-19T14:13:23;4.28;;;2.40;;
22778;SDS011;11556;51.194;3.800;2022-08-19T14:15:49;2.70;;;2.10;;
22778;SDS011;11556;51.194;3.800;2022-08-19T14:18:16;3.17;;;2.15;;
22778;SDS011;11556;51.194;3.800;2022-08-19T14:20:43;7.80;;;2.40;;
22778;SDS011;11556;51.194;3.800;2022-08-19T14:23:09;3.67;;;2.10;;
22778;SDS011;11556;51.194;3.800;2022-08-19T14:25:37;2.28;;;1.88;;
22778;SDS011;11556;51.194;3.800;2022-08-19T14:28:03;2.25;;;1.92;;
22778;SDS011;11556;51.194;3.800;2022-08-19T14:30:29;3.55;;;2.30;;
22778;SDS011;11556;51.194;3.800;2022-08-19T14:32:57;5.03;;;2.42;;
22778;SDS011;11556;51.194;3.800;2022-08-19T14:35:26;4.30;;;2.20;;
22778;SDS011;11556;51.194;3.800;2022-08-19T14:37:53;4.13;;;2.60;;
22778;SDS011;11556;51.194;3.800;2022-08-19T14:40:20;3.58;;;2.28;;
22778;SDS011;11556;51.194;3.800;2022-08-19T14:42:50;2.72;;;2.15;;
22778;SDS011;11556;51.194;3.800;2022-08-19T14:45:29;5.57;;;2.10;;
22778;SDS011;11556;51.194;3.800;2022-08-19T14:47:56;4.15;;;2.10;;
22778;SDS011;11556;51.194;3.800;2022-08-19T14:50:22;3.40;;;2.30;;